Terminal Aerodrome Forecast
Issued by NWS Cleveland, OH

Home | Current Version | Previous Version | Text Only | Print | Product List | Glossary On
Versions: 1 2 3 4 5 6 7 8 9 10 11 12 13 14 15 16 17 18 19 20 21 22 23 24 25 26 27 28 29
000
FTUS41 KCLE 242320
TAFCLE
TAF
KCLE 242320Z 2500/2606 28010KT P6SM OVC007
     FM250300 VRB06KT P6SM OVC010
     FM251000 18006KT P6SM OVC015
     FM251500 18010KT P6SM SCT020 OVC035
     FM252000 18010KT P6SM OVC020=

USA.gov is the U.S. government's official web portal to all federal, state and local government web resources and services.